createdAt,value
2019-04-22T00:01:34.655Z,62.20
2019-04-22T00:04:09.928Z,62.30
2019-04-22T00:06:56.098Z,62.60
2019-04-22T00:09:24.192Z,62.40
2019-04-22T00:11:54.240Z,62.10
2019-04-22T00:14:13.394Z,62.40
2019-04-22T00:16:51.682Z,62.80
2019-04-22T00:19:22.693Z,62.60
2019-04-22T00:21:47.626Z,63.10
2019-04-22T00:24:17.017Z,62.80
2019-04-22T00:26:44.014Z,62.70
2019-04-22T00:29:39.466Z,62.30
2019-04-22T00:31:40.496Z,62.50
2019-04-22T00:34:14.244Z,62.70
2019-04-22T00:36:46.567Z,63.10
2019-04-22T00:39:17.025Z,62.60
2019-04-22T00:41:43.996Z,63.20
2019-04-22T00:44:15.328Z,63.00
2019-04-22T00:46:38.014Z,63.70
2019-04-22T00:49:52.726Z,63.50
2019-04-22T00:51:36.445Z,64.30
2019-04-22T00:54:03.294Z,63.20
2019-04-22T00:56:29.441Z,63.80
2019-04-22T00:58:59.027Z,64.20
2019-04-22T01:01:46.721Z,64.70
2019-04-22T01:04:07.564Z,64.90
2019-04-22T01:06:25.727Z,65.70
2019-04-22T01:12:07.575Z,66.10
2019-04-22T01:13:52.159Z,66.40
2019-04-22T01:16:23.025Z,66.80
2019-04-22T01:18:48.498Z,67.10
2019-04-22T01:21:25.579Z,66.90
2019-04-22T01:23:40.707Z,67.20
2019-04-22T01:26:15.462Z,66.90
2019-04-22T01:28:39.975Z,67.30
2019-04-22T01:31:02.790Z,67.20
2019-04-22T01:33:33.199Z,67.50
2019-04-22T01:36:15.567Z,67.90
2019-04-22T01:38:49.285Z,67.90
2019-04-22T01:41:20.398Z,67.70
2019-04-22T01:43:54.369Z,68.00
2019-04-22T01:46:16.930Z,68.10
2019-04-22T01:48:39.307Z,68.20
2019-04-22T01:51:10.089Z,68.50
2019-04-22T01:53:42.374Z,68.60
2019-04-22T01:56:06.023Z,69.10
2019-04-22T01:58:30.260Z,69.30
2019-04-22T02:01:10.480Z,69.60
2019-04-22T02:03:35.990Z,69.40
2019-04-22T02:06:09.024Z,70.10
2019-04-22T02:08:37.870Z,69.50
2019-04-22T02:11:02.360Z,70.10
2019-04-22T02:13:32.147Z,70.20
2019-04-22T02:15:58.277Z,70.00
2019-04-22T02:20:50.382Z,70.40
2019-04-22T02:26:31.330Z,71.40
2019-04-22T02:28:36.973Z,71.70
2019-04-22T02:31:20.812Z,71.50
2019-04-22T02:38:51.900Z,72.50
2019-04-22T02:41:16.880Z,72.70
2019-04-22T02:46:13.239Z,72.70
2019-04-22T02:48:53.267Z,74.10
2019-04-22T02:53:58.583Z,73.80
2019-04-22T02:56:05.584Z,74.00
2019-04-22T02:58:26.565Z,73.80
2019-04-22T03:00:58.881Z,74.20
2019-04-22T03:03:31.145Z,74.00
2019-04-22T03:05:59.253Z,74.60
2019-04-22T03:10:56.507Z,74.70
2019-04-22T03:13:25.272Z,74.00
2019-04-22T03:15:55.237Z,74.30
2019-04-22T03:18:19.563Z,74.50
2019-04-22T03:20:42.735Z,74.10
2019-04-22T03:23:25.424Z,74.80
2019-04-22T03:28:05.833Z,76.10
2019-04-22T03:33:20.075Z,76.20
2019-04-22T03:36:05.825Z,77.00
2019-04-22T03:38:08.547Z,76.70
2019-04-22T03:48:09.321Z,77.70
2019-04-22T03:50:46.279Z,77.80
2019-04-22T03:53:11.462Z,78.80
2019-04-22T03:55:41.820Z,78.10
2019-04-22T03:57:56.957Z,79.50
2019-04-22T04:00:42.991Z,78.70
2019-04-22T04:05:47.894Z,80.70
2019-04-22T04:13:03.546Z,79.40
2019-04-22T04:20:34.353Z,79.50
2019-04-22T04:23:05.321Z,78.70
2019-04-22T04:25:42.723Z,79.90
2019-04-22T04:28:11.762Z,80.20
2019-04-22T04:35:23.488Z,80.90
2019-04-22T04:40:21.261Z,81.80
2019-04-22T04:50:07.016Z,81.90
2019-04-22T04:57:57.760Z,82.50
2019-04-22T05:02:40.770Z,83.20
2019-04-22T05:05:08.334Z,83.90
2019-04-22T05:07:36.079Z,83.90
2019-04-22T05:09:55.042Z,84.10
2019-04-22T05:12:38.981Z,83.80
2019-04-22T05:17:18.325Z,84.20
2019-04-22T05:19:50.261Z,83.80
2019-04-22T05:22:18.945Z,84.20
2019-04-22T05:24:45.191Z,83.60
2019-04-22T05:27:24.688Z,84.30
2019-04-22T05:29:54.236Z,84.40
2019-04-22T05:32:04.315Z,83.90
2019-04-22T05:34:33.496Z,83.60
2019-04-22T05:37:05.302Z,83.50
2019-04-22T05:39:29.774Z,83.50
2019-04-22T05:42:04.141Z,83.20
2019-04-22T05:44:32.571Z,83.40
2019-04-22T05:46:55.774Z,82.70
2019-04-22T05:49:23.912Z,82.80
2019-04-22T05:52:09.659Z,82.50
2019-04-22T05:54:25.257Z,81.50
2019-04-22T05:56:49.581Z,81.90
2019-04-22T05:59:20.886Z,81.50
2019-04-22T06:04:19.815Z,82.90
2019-04-22T06:06:44.958Z,83.10
2019-04-22T06:09:10.720Z,82.40
2019-04-22T06:11:34.015Z,82.10
2019-04-22T06:14:07.826Z,81.40
2019-04-22T06:16:44.011Z,82.10
2019-04-22T06:19:16.810Z,81.50
2019-04-22T06:29:13.319Z,80.60
2019-04-22T06:31:52.671Z,80.70
2019-04-22T06:36:37.761Z,79.40
2019-04-22T06:38:59.076Z,78.90
2019-04-22T06:41:37.000Z,79.70
2019-04-22T06:43:57.871Z,78.50
2019-04-22T06:46:31.106Z,78.00
2019-04-22T06:48:52.824Z,78.30
2019-04-22T06:51:24.423Z,78.20
2019-04-22T06:53:47.349Z,77.90
2019-04-22T06:56:15.887Z,77.00
2019-04-22T06:58:50.642Z,76.70
2019-04-22T07:03:52.310Z,78.20
2019-04-22T07:06:17.556Z,76.60
2019-04-22T07:09:06.449Z,76.30
2019-04-22T07:11:14.203Z,76.10
2019-04-22T07:14:00.222Z,75.20
2019-04-22T07:16:05.237Z,74.60
2019-04-22T07:18:48.687Z,74.50
2019-04-22T07:21:01.417Z,74.50
2019-04-22T07:23:42.783Z,74.60
2019-04-22T07:25:58.651Z,75.50
2019-04-22T07:28:23.058Z,75.90
2019-04-22T07:30:57.657Z,76.00
2019-04-22T07:36:14.677Z,74.10
2019-04-22T07:38:26.387Z,74.20
2019-04-22T07:40:50.562Z,74.10
2019-04-22T07:43:27.966Z,73.40
2019-04-22T07:45:48.940Z,74.10
2019-04-22T07:48:26.441Z,74.50
2019-04-22T07:53:14.383Z,74.50
2019-04-22T07:55:42.816Z,74.00
2019-04-22T07:58:11.909Z,73.60
2019-04-22T08:00:38.683Z,73.40
2019-04-22T08:03:12.152Z,73.00
2019-04-22T08:05:45.839Z,73.30
2019-04-22T08:08:14.579Z,72.50
2019-04-22T08:13:03.752Z,72.30
2019-04-22T08:15:39.847Z,72.10
2019-04-22T08:18:04.285Z,70.80
2019-04-22T08:20:39.197Z,71.10
2019-04-22T08:23:04.677Z,71.40
2019-04-22T08:25:36.734Z,70.80
2019-04-22T08:28:08.350Z,71.60
2019-04-22T08:30:35.469Z,71.40
2019-04-22T08:33:04.788Z,71.20
2019-04-22T08:35:50.246Z,71.80
2019-04-22T08:37:58.917Z,71.10
2019-04-22T08:40:37.526Z,70.20
2019-04-22T08:43:11.517Z,70.90
2019-04-22T08:45:33.656Z,71.10
2019-04-22T08:47:57.960Z,70.10
2019-04-22T08:50:33.930Z,70.40
2019-04-22T08:53:08.102Z,69.80
2019-04-22T08:58:16.547Z,70.50
2019-04-22T09:00:42.093Z,70.70
2019-04-22T09:03:01.597Z,70.30
2019-04-22T09:05:53.479Z,70.00
2019-04-22T09:08:05.977Z,70.00
2019-04-22T09:10:36.165Z,69.90
2019-04-22T09:13:00.857Z,69.90
2019-04-22T09:15:31.047Z,68.50
2019-04-22T09:18:02.090Z,68.50
2019-04-22T09:20:26.498Z,68.30
2019-04-22T09:25:24.032Z,78.20
2019-04-22T09:27:49.881Z,85.60
2019-04-22T09:30:30.594Z,83.20
2019-04-22T09:32:55.756Z,75.40
2019-04-22T09:35:21.368Z,75.10
2019-04-22T09:38:08.962Z,72.20
2019-04-22T09:40:15.853Z,74.80
2019-04-22T09:42:45.516Z,75.20
2019-04-22T09:45:10.168Z,72.20
2019-04-22T09:50:08.609Z,70.70
2019-04-22T09:52:42.108Z,70.00
2019-04-22T09:57:35.230Z,69.50
2019-04-22T10:02:33.931Z,68.10
2019-04-22T10:10:03.287Z,66.00
2019-04-22T10:12:32.475Z,65.00
2019-04-22T10:14:55.491Z,65.70
2019-04-22T10:17:26.106Z,65.20
2019-04-22T10:19:53.518Z,66.10
2019-04-22T10:22:29.087Z,65.30
2019-04-22T10:24:55.276Z,65.90
2019-04-22T10:27:16.255Z,66.00
2019-04-22T10:30:00.103Z,64.90
2019-04-22T10:32:14.331Z,67.00
2019-04-22T10:34:28.949Z,65.10
2019-04-22T10:36:52.673Z,63.60
2019-04-22T10:39:16.251Z,64.90
2019-04-22T10:41:44.296Z,65.20
2019-04-22T10:44:11.084Z,62.70
2019-04-22T10:46:37.964Z,64.00
2019-04-22T10:49:04.532Z,62.80
2019-04-22T10:51:30.982Z,63.40
2019-04-22T10:53:57.777Z,62.80
2019-04-22T10:56:25.298Z,61.90
2019-04-22T10:58:52.972Z,61.50
2019-04-22T11:01:19.642Z,62.70
2019-04-22T11:03:46.072Z,62.60
2019-04-22T11:06:15.196Z,61.90
2019-04-22T11:08:50.474Z,61.90
2019-04-22T11:11:21.388Z,62.40
2019-04-22T11:13:39.914Z,63.20
2019-04-22T11:16:07.607Z,62.40
2019-04-22T11:18:35.672Z,61.70
2019-04-22T11:21:02.501Z,61.60
2019-04-22T11:23:29.376Z,61.90
2019-04-22T11:25:57.606Z,61.90
2019-04-22T11:28:25.541Z,61.70
2019-04-22T11:30:52.364Z,61.80
2019-04-22T11:33:20.463Z,62.10
2019-04-22T11:35:47.966Z,61.60
2019-04-22T11:38:37.716Z,60.90
2019-04-22T11:41:05.404Z,60.50
2019-04-22T11:43:32.663Z,60.00
2019-04-22T11:45:59.591Z,60.00
2019-04-22T11:48:27.036Z,60.10
2019-04-22T11:50:53.826Z,60.60
2019-04-22T11:53:20.712Z,60.30
2019-04-22T11:55:48.799Z,59.80
2019-04-22T11:58:16.939Z,60.40
2019-04-22T12:00:45.106Z,61.00
2019-04-22T12:03:12.603Z,60.40
2019-04-22T12:05:39.824Z,59.20
2019-04-22T12:08:07.071Z,59.30
2019-04-22T12:10:41.148Z,59.80
2019-04-22T12:13:03.946Z,59.30
2019-04-22T12:15:31.136Z,59.60
2019-04-22T12:17:59.205Z,58.90
2019-04-22T12:20:27.466Z,58.00
2019-04-22T12:22:54.247Z,58.80
2019-04-22T12:25:31.994Z,58.80
2019-04-22T12:27:50.958Z,59.00
2019-04-22T12:30:19.590Z,59.30
2019-04-22T12:32:46.477Z,59.40
2019-04-22T12:35:15.630Z,58.10
2019-04-22T12:37:49.568Z,57.70
2019-04-22T12:40:13.029Z,57.80
2019-04-22T12:42:39.715Z,58.60
2019-04-22T12:45:09.914Z,59.00
2019-04-22T12:47:37.829Z,57.90
2019-04-22T12:50:19.704Z,56.80
2019-04-22T12:52:47.816Z,57.60
2019-04-22T12:55:08.273Z,57.50
2019-04-22T12:57:34.955Z,57.40
2019-04-22T13:00:02.004Z,56.80
2019-04-22T13:02:29.312Z,57.10
2019-04-22T13:04:56.273Z,56.70
2019-04-22T13:07:24.119Z,56.10
2019-04-22T13:09:51.648Z,56.90
2019-04-22T13:12:19.351Z,56.30
2019-04-22T13:14:46.133Z,56.50
2019-04-22T13:17:15.246Z,55.70
2019-04-22T13:19:42.394Z,57.00
2019-04-22T13:22:09.318Z,56.60
2019-04-22T13:24:36.189Z,57.20
2019-04-22T13:27:03.297Z,57.30
2019-04-22T13:29:31.150Z,57.70
2019-04-22T13:31:58.574Z,56.40
2019-04-22T13:34:30.436Z,55.80
2019-04-22T13:36:54.929Z,56.60
2019-04-22T13:39:22.857Z,56.70
2019-04-22T13:41:54.560Z,57.00
2019-04-22T13:44:18.950Z,55.60
2019-04-22T13:47:04.128Z,56.20
2019-04-22T13:50:01.090Z,56.50
2019-04-22T13:52:29.230Z,56.70
2019-04-22T13:54:48.675Z,56.50
2019-04-22T13:57:01.344Z,56.90
2019-04-22T13:59:18.316Z,56.90
2019-04-22T14:01:48.378Z,55.80
2019-04-22T14:04:22.850Z,55.30
2019-04-22T14:06:49.483Z,55.90
2019-04-22T14:09:18.225Z,55.70
2019-04-22T14:11:50.520Z,55.70
2019-04-22T14:14:12.959Z,55.50
2019-04-22T14:16:40.828Z,55.20
2019-04-22T14:19:07.859Z,55.30
2019-04-22T14:21:34.851Z,54.30
2019-04-22T14:24:02.730Z,55.20
2019-04-22T14:26:46.826Z,54.20
2019-04-22T14:28:59.806Z,54.40
2019-04-22T14:31:26.757Z,54.50
2019-04-22T14:33:59.076Z,53.30
2019-04-22T14:36:23.322Z,53.10
2019-04-22T14:38:50.232Z,52.60
2019-04-22T14:41:35.757Z,51.70
2019-04-22T14:44:51.452Z,52.50
2019-04-22T14:46:39.113Z,52.40
2019-04-22T14:49:02.872Z,53.00
2019-04-22T14:51:27.717Z,53.20
2019-04-22T14:53:55.523Z,51.90
2019-04-22T14:56:08.465Z,52.10
2019-04-22T14:58:35.288Z,51.90
2019-04-22T15:01:03.297Z,52.60
2019-04-22T15:03:31.409Z,52.50
2019-04-22T15:05:58.303Z,51.30
2019-04-22T15:08:24.884Z,50.60
2019-04-22T15:10:51.797Z,51.20
2019-04-22T15:13:18.608Z,52.00
2019-04-22T15:15:49.795Z,51.30
2019-04-22T15:18:26.296Z,49.60
2019-04-22T15:21:00.753Z,49.90
2019-04-22T15:23:28.654Z,50.40
2019-04-22T15:25:56.803Z,49.90
2019-04-22T15:28:23.755Z,49.20
2019-04-22T15:30:51.186Z,49.40
2019-04-22T15:33:19.312Z,48.60
2019-04-22T15:35:47.240Z,48.10
2019-04-22T15:38:15.424Z,47.90
2019-04-22T15:40:42.793Z,47.80
2019-04-22T15:43:10.949Z,47.80
2019-04-22T15:45:39.083Z,47.70
2019-04-22T15:48:06.171Z,48.70
2019-04-22T15:50:33.071Z,46.70
2019-04-22T15:53:02.515Z,45.60
2019-04-22T15:55:29.160Z,46.10
2019-04-22T15:57:57.468Z,45.00
2019-04-22T16:00:36.791Z,45.00
2019-04-22T16:02:53.052Z,45.90
2019-04-22T16:05:20.375Z,45.50
2019-04-22T16:07:48.524Z,46.40
2019-04-22T16:10:15.887Z,47.40
2019-04-22T16:12:53.036Z,47.50
2019-04-22T16:15:13.202Z,46.90
2019-04-22T16:17:40.392Z,45.20
2019-04-22T16:20:08.981Z,44.70
2019-04-22T16:22:55.007Z,43.80
2019-04-22T16:25:42.951Z,43.70
2019-04-22T16:28:11.019Z,43.30
2019-04-22T16:30:39.407Z,42.40
2019-04-22T16:33:07.809Z,42.40
2019-04-22T16:35:35.103Z,42.20
2019-04-22T16:38:01.796Z,42.70
2019-04-22T16:40:28.454Z,43.10
2019-04-22T16:42:58.599Z,42.00
2019-04-22T16:45:25.283Z,41.90
2019-04-22T16:47:53.551Z,41.90
2019-04-22T16:50:20.945Z,40.30
2019-04-22T16:52:48.199Z,42.00
2019-04-22T16:55:15.241Z,40.70
2019-04-22T16:57:42.179Z,41.20
2019-04-22T17:00:11.175Z,41.60
2019-04-22T17:03:00.646Z,41.70
2019-04-22T17:05:45.755Z,44.60
2019-04-22T17:08:14.169Z,45.00
2019-04-22T17:10:41.921Z,42.00
2019-04-22T17:13:14.747Z,42.20
2019-04-22T17:15:37.600Z,41.60
2019-04-22T17:18:05.483Z,42.60
2019-04-22T17:20:32.384Z,42.80
2019-04-22T17:23:00.028Z,43.90
2019-04-22T17:25:26.744Z,43.60
2019-04-22T17:27:53.421Z,44.00
2019-04-22T17:30:22.147Z,44.10
2019-04-22T17:32:50.426Z,44.30
2019-04-22T17:35:17.826Z,44.90
2019-04-22T17:37:45.157Z,45.40
2019-04-22T17:40:30.404Z,46.80
2019-04-22T17:42:55.197Z,47.10
2019-04-22T17:45:49.230Z,47.20
2019-04-22T17:48:35.438Z,48.60
2019-04-22T17:51:16.600Z,49.20
2019-04-22T17:53:40.287Z,49.20
2019-04-22T17:56:10.164Z,50.30
2019-04-22T17:58:40.233Z,49.40
2019-04-22T18:01:02.722Z,52.50
2019-04-22T18:03:22.675Z,49.90
2019-04-22T18:05:44.963Z,53.50
2019-04-22T18:08:24.915Z,52.40
2019-04-22T18:10:56.063Z,52.00
2019-04-22T18:13:35.706Z,49.60
2019-04-22T18:15:58.386Z,49.70
2019-04-22T18:18:27.935Z,51.50
2019-04-22T18:20:45.761Z,51.80
2019-04-22T18:23:06.496Z,50.80
2019-04-22T18:25:48.500Z,53.80
2019-04-22T18:28:17.665Z,51.90
2019-04-22T18:30:39.730Z,54.30
2019-04-22T18:33:16.116Z,53.00
2019-04-22T18:35:42.075Z,53.00
2019-04-22T18:38:21.887Z,52.70
2019-04-22T18:40:38.417Z,54.30
2019-04-22T18:43:13.568Z,50.00
2019-04-22T18:45:47.467Z,52.90
2019-04-22T18:48:03.973Z,52.80
2019-04-22T18:50:52.563Z,49.10
2019-04-22T18:53:21.660Z,49.90
2019-04-22T18:56:09.772Z,48.90
2019-04-22T18:58:27.363Z,51.30
2019-04-22T19:00:44.020Z,51.10
2019-04-22T19:03:16.448Z,52.80
2019-04-22T19:06:02.651Z,52.90
2019-04-22T19:08:29.287Z,49.10
2019-04-22T19:11:06.942Z,52.40
2019-04-22T19:13:51.274Z,49.90
2019-04-22T19:16:01.490Z,49.90
2019-04-22T19:21:02.594Z,52.80
2019-04-22T19:23:28.747Z,52.80
2019-04-22T19:25:52.181Z,50.40
2019-04-22T19:28:29.500Z,52.20
2019-04-22T19:30:59.533Z,52.80
2019-04-22T19:33:23.880Z,50.20
2019-04-22T19:35:58.082Z,52.70
2019-04-22T19:38:12.202Z,50.20
2019-04-22T19:41:00.919Z,52.40
2019-04-22T19:43:16.042Z,52.30
2019-04-22T19:45:42.996Z,53.20
2019-04-22T19:48:21.900Z,53.90
2019-04-22T19:50:54.451Z,50.10
2019-04-22T19:53:19.496Z,47.80
2019-04-22T19:55:45.049Z,47.80
2019-04-22T19:58:13.146Z,47.20
2019-04-22T20:00:39.130Z,47.20
2019-04-22T20:03:25.338Z,47.30
2019-04-22T20:05:59.663Z,47.40
2019-04-22T20:08:26.388Z,47.80
2019-04-22T20:10:52.322Z,47.30
2019-04-22T20:13:33.456Z,47.50
2019-04-22T20:15:43.411Z,46.70
2019-04-22T20:18:44.032Z,46.70
2019-04-22T20:20:56.014Z,46.70
2019-04-22T20:23:14.400Z,46.60
2019-04-22T20:25:43.606Z,46.70
2019-04-22T20:28:19.391Z,46.50
2019-04-22T20:30:49.238Z,47.60
2019-04-22T20:33:08.746Z,46.90
2019-04-22T20:35:43.738Z,46.60
2019-04-22T20:38:08.799Z,46.70
2019-04-22T20:40:39.519Z,46.80
2019-04-22T20:43:17.635Z,47.00
2019-04-22T20:45:40.922Z,47.30
2019-04-22T20:47:58.100Z,47.10
2019-04-22T20:50:39.498Z,47.70
2019-04-22T20:53:07.337Z,48.40
2019-04-22T20:55:26.787Z,47.70
2019-04-22T20:58:08.140Z,48.20
2019-04-22T21:00:28.159Z,48.10
2019-04-22T21:02:51.392Z,48.30
2019-04-22T21:05:24.911Z,48.30
2019-04-22T21:08:06.310Z,49.00
2019-04-22T21:10:23.261Z,48.80
2019-04-22T21:12:50.923Z,49.30
2019-04-22T21:15:35.381Z,49.30
2019-04-22T21:17:55.307Z,49.50
2019-04-22T21:20:34.534Z,49.70
2019-04-22T21:22:58.833Z,49.60
2019-04-22T21:25:18.215Z,50.00
2019-04-22T21:28:03.070Z,50.10
2019-04-22T21:30:29.226Z,50.40
2019-04-22T21:32:53.554Z,50.40
2019-04-22T21:35:40.383Z,50.80
2019-04-22T21:38:04.387Z,51.10
2019-04-22T21:40:27.400Z,51.30
2019-04-22T21:43:02.160Z,51.80
2019-04-22T21:45:21.720Z,51.90
2019-04-22T21:48:07.101Z,52.00
2019-04-22T21:50:45.585Z,52.50
2019-04-22T21:53:01.819Z,53.00
2019-04-22T21:55:36.074Z,53.10
2019-04-22T21:58:06.870Z,53.40
2019-04-22T22:00:53.941Z,53.60
2019-04-22T22:03:13.877Z,53.70
2019-04-22T22:05:29.778Z,54.30
2019-04-22T22:07:56.108Z,54.40
2019-04-22T22:10:43.536Z,54.50
2019-04-22T22:13:05.200Z,54.50
2019-04-22T22:15:31.840Z,54.30
2019-04-22T22:17:55.079Z,54.40
2019-04-22T22:20:36.014Z,54.70
2019-04-22T22:23:20.328Z,54.50
2019-04-22T22:25:30.170Z,54.80
2019-04-22T22:27:58.706Z,56.00
2019-04-22T22:30:42.709Z,55.40
2019-04-22T22:33:04.112Z,56.30
2019-04-22T22:35:25.709Z,55.90
2019-04-22T22:37:50.424Z,55.70
2019-04-22T22:40:11.851Z,55.90
2019-04-22T22:42:38.762Z,56.20
2019-04-22T22:45:17.565Z,56.70
2019-04-22T22:47:53.409Z,56.90
2019-04-22T22:50:28.282Z,56.90
2019-04-22T22:53:17.195Z,57.00
2019-04-22T22:55:29.296Z,57.00
2019-04-22T22:57:59.864Z,56.80
2019-04-22T23:00:28.853Z,57.30
2019-04-22T23:03:12.570Z,57.60
2019-04-22T23:05:35.821Z,57.60
2019-04-22T23:08:18.725Z,57.60
2019-04-22T23:10:38.151Z,57.60
2019-04-22T23:13:05.350Z,57.80
2019-04-22T23:15:25.944Z,57.80
2019-04-22T23:17:37.829Z,58.70
2019-04-22T23:20:07.212Z,58.20
2019-04-22T23:22:50.937Z,58.40
2019-04-22T23:25:27.117Z,58.10
2019-04-22T23:27:52.575Z,58.50
2019-04-22T23:30:30.015Z,57.80
2019-04-22T23:33:12.276Z,58.30
2019-04-22T23:35:37.182Z,57.80
2019-04-22T23:38:08.105Z,57.80
2019-04-22T23:40:38.985Z,58.10
2019-04-22T23:43:15.788Z,58.30
2019-04-22T23:45:41.588Z,57.90
2019-04-22T23:48:06.902Z,57.60
2019-04-22T23:50:37.562Z,57.10
2019-04-22T23:53:11.387Z,57.20
2019-04-22T23:55:37.161Z,57.20
2019-04-22T23:58:09.640Z,57.00
